createdAt,value
2023-01-09T00:01:47.733Z,100074.41
2023-01-09T00:04:16.035Z,100063.78
2023-01-09T00:06:53.772Z,100070.47
2023-01-09T00:09:22.585Z,100062.41
2023-01-09T00:11:50.801Z,100061.06
2023-01-09T00:14:19.471Z,100059.72
2023-01-09T00:16:47.915Z,100057.59
2023-01-09T00:19:16.037Z,100057.31
2023-01-09T00:21:45.592Z,100061.59
2023-01-09T00:24:14.793Z,100060.00
2023-01-09T00:26:42.912Z,100058.94
2023-01-09T00:29:12.181Z,100056.75
2023-01-09T00:31:40.476Z,100058.75
2023-01-09T00:34:10.778Z,100059.59
2023-01-09T00:36:38.860Z,100052.94
2023-01-09T00:39:08.336Z,100058.84
2023-01-09T00:41:39.927Z,100055.69
2023-01-09T00:44:13.083Z,100056.00
2023-01-09T00:46:45.036Z,100049.91
2023-01-09T00:49:16.495Z,100042.78
2023-01-09T00:51:44.813Z,100039.34
2023-01-09T00:54:17.755Z,100043.28
2023-01-09T00:56:46.072Z,100045.75
2023-01-09T00:59:14.264Z,100042.59
2023-01-09T01:01:42.573Z,100044.75
2023-01-09T01:04:28.384Z,100044.50
2023-01-09T01:07:13.815Z,100042.66
2023-01-09T01:09:43.405Z,100035.97
2023-01-09T01:12:11.557Z,100038.91
2023-01-09T01:14:40.723Z,100031.19
2023-01-09T01:17:09.401Z,100026.38
2023-01-09T01:19:37.753Z,100019.41
2023-01-09T01:22:06.040Z,100025.31
2023-01-09T01:24:35.080Z,100019.16
2023-01-09T01:27:04.696Z,100012.50
2023-01-09T01:29:32.844Z,100016.25
2023-01-09T01:32:01.001Z,100013.88
2023-01-09T01:34:32.500Z,100011.50
2023-01-09T01:37:00.601Z,100005.94
2023-01-09T01:39:28.745Z,100006.41
2023-01-09T01:41:56.919Z,100000.03
2023-01-09T01:45:00.950Z,99994.16
2023-01-09T01:47:56.187Z,99993.94
2023-01-09T01:50:30.708Z,99990.19
2023-01-09T01:53:08.280Z,99988.63
2023-01-09T01:55:40.342Z,99982.75
2023-01-09T01:58:11.984Z,99980.63
2023-01-09T02:00:45.005Z,99976.63
2023-01-09T02:03:16.963Z,99971.84
2023-01-09T02:05:46.516Z,99982.19
2023-01-09T02:08:15.669Z,99970.72
2023-01-09T02:10:45.806Z,99966.47
2023-01-09T02:13:14.878Z,99968.09
2023-01-09T02:15:56.981Z,99964.63
2023-01-09T02:18:46.267Z,99961.19
2023-01-09T02:21:23.588Z,99960.41
2023-01-09T02:24:11.273Z,99954.28
2023-01-09T02:27:02.995Z,99950.31
2023-01-09T02:30:09.982Z,99952.16
2023-01-09T02:32:47.380Z,99959.13
2023-01-09T02:35:29.052Z,99948.97
2023-01-09T02:38:04.793Z,99946.84
2023-01-09T02:40:38.555Z,99940.97
2023-01-09T02:43:08.527Z,99940.72
2023-01-09T02:45:36.883Z,99942.06
2023-01-09T02:48:07.103Z,99937.81
2023-01-09T02:50:40.630Z,99943.63
2023-01-09T02:53:42.198Z,99936.16
2023-01-09T02:56:34.770Z,99929.75
2023-01-09T02:59:21.095Z,99933.47
2023-01-09T03:01:59.301Z,99936.97
2023-01-09T03:04:38.505Z,99930.28
2023-01-09T03:07:14.669Z,99941.19
2023-01-09T03:09:45.084Z,99937.47
2023-01-09T03:12:18.856Z,99940.66
2023-01-09T03:14:49.941Z,99942.53
2023-01-09T03:17:28.006Z,99940.13
2023-01-09T03:19:59.459Z,99945.97
2023-01-09T03:22:27.612Z,99932.94
2023-01-09T03:24:56.393Z,99933.41
2023-01-09T03:27:24.683Z,99931.25
2023-01-09T03:29:53.458Z,99931.25
2023-01-09T03:32:21.569Z,99932.28
2023-01-09T03:34:49.737Z,99929.34
2023-01-09T03:37:19.342Z,99929.91
2023-01-09T03:39:47.512Z,99936.28
2023-01-09T03:42:15.876Z,99940.06
2023-01-09T03:44:44.029Z,99936.59
2023-01-09T03:47:12.128Z,99938.72
2023-01-09T03:49:40.516Z,99929.41
2023-01-09T03:52:09.579Z,99932.25
2023-01-09T03:54:40.491Z,99930.94
2023-01-09T03:57:09.576Z,99924.56
2023-01-09T03:59:37.761Z,99923.50
2023-01-09T04:02:06.079Z,99931.03
2023-01-09T04:04:34.277Z,99936.06
2023-01-09T04:07:02.422Z,99935.03
2023-01-09T04:09:30.594Z,99932.91
2023-01-09T04:12:00.119Z,99935.28
2023-01-09T04:14:28.097Z,99936.31
2023-01-09T04:16:56.200Z,99945.66
2023-01-09T04:19:24.423Z,99939.28
2023-01-09T04:21:52.588Z,99945.19
2023-01-09T04:24:21.620Z,99943.31
2023-01-09T04:26:49.805Z,99949.44
2023-01-09T04:29:19.321Z,99949.75
2023-01-09T04:31:47.415Z,99951.38
2023-01-09T04:34:15.665Z,99956.44
2023-01-09T04:36:44.139Z,99951.38
2023-01-09T04:39:12.273Z,99957.25
2023-01-09T04:41:52.971Z,99955.06
2023-01-09T04:44:26.287Z,99962.75
2023-01-09T04:46:56.241Z,99971.81
2023-01-09T04:49:24.749Z,99968.09
2023-01-09T04:51:53.102Z,99963.84
2023-01-09T04:54:21.716Z,99957.69
2023-01-09T04:56:50.191Z,99962.25
2023-01-09T04:59:18.581Z,99957.16
2023-01-09T05:01:48.188Z,99961.47
2023-01-09T05:04:16.640Z,99959.84
2023-01-09T05:06:44.879Z,99962.75
2023-01-09T05:09:13.124Z,99955.50
2023-01-09T05:11:42.052Z,99954.09
2023-01-09T05:14:10.451Z,99963.91
2023-01-09T05:16:38.533Z,99963.38
2023-01-09T05:19:08.057Z,99962.63
2023-01-09T05:21:36.317Z,99956.78
2023-01-09T05:24:04.329Z,99959.47
2023-01-09T05:26:32.525Z,99956.81
2023-01-09T05:29:00.629Z,99963.16
2023-01-09T05:31:29.036Z,99958.38
2023-01-09T05:33:59.308Z,99961.59
2023-01-09T05:36:29.455Z,99966.41
2023-01-09T05:38:58.427Z,99957.03
2023-01-09T05:41:26.704Z,99958.03
2023-01-09T05:43:54.779Z,99948.44
2023-01-09T05:46:22.932Z,99957.25
2023-01-09T05:48:52.567Z,99957.03
2023-01-09T05:51:20.658Z,99951.47
2023-01-09T05:53:50.345Z,99957.91
2023-01-09T05:56:18.846Z,99952.00
2023-01-09T05:58:47.046Z,99950.56
2023-01-09T06:01:15.575Z,99953.97
2023-01-09T06:03:45.281Z,99956.59
2023-01-09T06:06:13.569Z,99961.41
2023-01-09T06:08:41.677Z,99954.97
2023-01-09T06:11:11.142Z,99955.50
2023-01-09T06:13:39.210Z,99959.25
2023-01-09T06:16:08.553Z,99955.00
2023-01-09T06:18:36.848Z,99953.97
2023-01-09T06:21:05.462Z,99953.13
2023-01-09T06:23:33.554Z,99955.00
2023-01-09T06:26:01.769Z,99959.53
2023-01-09T06:28:31.304Z,99954.34
2023-01-09T06:30:59.342Z,99958.56
2023-01-09T06:33:27.585Z,99959.09
2023-01-09T06:35:55.764Z,99945.78
2023-01-09T06:38:23.826Z,99944.63
2023-01-09T06:40:51.893Z,99944.03
2023-01-09T06:43:20.019Z,99951.47
2023-01-09T06:45:49.674Z,99949.19
2023-01-09T06:48:17.845Z,99946.16
2023-01-09T06:50:48.869Z,99955.06
2023-01-09T06:53:16.951Z,99946.63
2023-01-09T06:55:45.693Z,99952.00
2023-01-09T06:58:14.386Z,99951.47
2023-01-09T07:00:42.769Z,99954.31
2023-01-09T07:03:12.467Z,99948.22
2023-01-09T07:05:44.095Z,99946.34
2023-01-09T07:08:12.166Z,99954.31
2023-01-09T07:10:40.380Z,99953.84
2023-01-09T07:13:08.521Z,99954.41
2023-01-09T07:15:37.009Z,99953.91
2023-01-09T07:18:05.733Z,99958.56
2023-01-09T07:20:35.207Z,99950.72
2023-01-09T07:23:03.284Z,99936.56
2023-01-09T07:25:31.406Z,99944.50
2023-01-09T07:27:59.634Z,99946.44
2023-01-09T07:30:27.761Z,99938.38
2023-01-09T07:32:55.823Z,99929.25
2023-01-09T07:35:23.881Z,99941.56
2023-01-09T07:37:53.299Z,99935.56
2023-01-09T07:40:21.474Z,99935.31
2023-01-09T07:42:49.615Z,99920.88
2023-01-09T07:45:17.818Z,99929.63
2023-01-09T07:47:46.051Z,99923.16
2023-01-09T07:50:14.261Z,99925.41
2023-01-09T07:52:42.678Z,99922.59
2023-01-09T07:55:13.360Z,99918.13
2023-01-09T07:57:41.800Z,99913.13
2023-01-09T08:00:11.496Z,99924.00
2023-01-09T08:02:39.724Z,99916.75
2023-01-09T08:05:13.712Z,99918.31
2023-01-09T08:07:41.861Z,99917.34
2023-01-09T08:10:13.360Z,99933.28
2023-01-09T08:12:45.050Z,99927.84
2023-01-09T08:15:13.546Z,99928.28
2023-01-09T08:17:44.205Z,99919.44
2023-01-09T08:20:18.444Z,99914.16
2023-01-09T08:22:50.714Z,99924.59
2023-01-09T08:25:20.491Z,99913.81
2023-01-09T08:27:48.807Z,99917.59
2023-01-09T08:30:17.605Z,99911.97
2023-01-09T08:32:50.748Z,99908.81
2023-01-09T08:35:19.171Z,99902.06
2023-01-09T08:37:47.594Z,99905.13
2023-01-09T08:40:16.949Z,99913.56
2023-01-09T08:43:04.496Z,99906.34
2023-01-09T08:45:51.326Z,99906.66
2023-01-09T08:48:19.609Z,99902.38
2023-01-09T08:50:47.835Z,99902.69
2023-01-09T08:53:16.728Z,99904.78
2023-01-09T08:55:45.430Z,99910.81
2023-01-09T08:58:15.043Z,99908.00
2023-01-09T09:00:43.247Z,99899.03
2023-01-09T09:03:12.250Z,99894.69
2023-01-09T09:05:40.361Z,99893.03
2023-01-09T09:08:08.593Z,99898.09
2023-01-09T09:10:37.437Z,99898.03
2023-01-09T09:13:05.674Z,99889.78
2023-01-09T09:15:38.228Z,99893.63
2023-01-09T09:18:09.321Z,99894.81
2023-01-09T09:20:40.486Z,99892.13
2023-01-09T09:23:09.344Z,99888.31
2023-01-09T09:25:38.712Z,99886.06
2023-01-09T09:28:08.089Z,99878.91
2023-01-09T09:30:40.261Z,99878.16
2023-01-09T09:33:08.590Z,99880.53
2023-01-09T09:35:36.614Z,99876.84
2023-01-09T09:38:06.327Z,99873.84
2023-01-09T09:40:48.456Z,99870.13
2023-01-09T09:43:53.370Z,99873.44
2023-01-09T09:46:32.351Z,99870.34
2023-01-09T09:49:07.172Z,99873.31
2023-01-09T09:51:57.797Z,99869.06
2023-01-09T09:54:31.364Z,99865.31
2023-01-09T09:57:02.766Z,99864.63
2023-01-09T09:59:33.795Z,99854.69
2023-01-09T10:02:11.489Z,99851.72
2023-01-09T10:04:46.812Z,99850.31
2023-01-09T10:07:21.321Z,99842.56
2023-01-09T10:09:55.739Z,99848.13
2023-01-09T10:12:29.971Z,99848.66
2023-01-09T10:15:01.328Z,99854.44
2023-01-09T10:17:44.473Z,99845.97
2023-01-09T10:20:49.564Z,99828.41
2023-01-09T10:23:35.604Z,99825.31
2023-01-09T10:26:12.478Z,99820.97
2023-01-09T10:29:00.887Z,99821.34
2023-01-09T10:31:36.672Z,99821.16
2023-01-09T10:34:20.644Z,99811.78
2023-01-09T10:37:01.151Z,99808.94
2023-01-09T10:39:35.377Z,99813.59
2023-01-09T10:42:12.321Z,99810.41
2023-01-09T10:44:48.533Z,99816.28
2023-01-09T10:47:20.065Z,99809.81
2023-01-09T10:49:52.172Z,99815.69
2023-01-09T10:52:25.270Z,99800.69
2023-01-09T10:54:57.211Z,99792.25
2023-01-09T10:57:44.244Z,99797.88
2023-01-09T11:00:22.328Z,99791.63
2023-01-09T11:02:52.326Z,99792.94
2023-01-09T11:05:24.627Z,99789.97
2023-01-09T11:07:57.230Z,99790.56
2023-01-09T11:10:45.193Z,99793.44
2023-01-09T11:13:16.500Z,99789.06
2023-01-09T11:15:44.729Z,99784.28
2023-01-09T11:18:22.249Z,99778.03
2023-01-09T11:20:52.367Z,99783.75
2023-01-09T11:23:32.975Z,99779.56
2023-01-09T11:26:03.449Z,99772.91
2023-01-09T11:28:31.735Z,99763.28
2023-01-09T11:31:02.005Z,99765.78
2023-01-09T11:33:31.954Z,99759.31
2023-01-09T11:36:11.015Z,99749.09
2023-01-09T11:38:51.490Z,99746.16
2023-01-09T11:41:22.009Z,99730.66
2023-01-09T11:43:52.365Z,99729.69
2023-01-09T11:46:38.697Z,99725.72
2023-01-09T11:49:22.733Z,99708.34
2023-01-09T11:54:53.539Z,99714.91
2023-01-09T11:57:22.925Z,99701.47
2023-01-09T11:59:51.807Z,99693.16
2023-01-09T12:02:43.733Z,99694.25
2023-01-09T12:05:26.164Z,99678.16
2023-01-09T12:08:10.057Z,99681.34
2023-01-09T12:11:04.461Z,99673.97
2023-01-09T12:13:50.193Z,99674.09
2023-01-09T12:16:28.431Z,99678.81
2023-01-09T12:19:12.260Z,99680.78
2023-01-09T12:21:47.503Z,99677.66
2023-01-09T12:24:51.223Z,99669.63
2023-01-09T12:27:31.374Z,99674.25
2023-01-09T12:30:16.739Z,99668.88
2023-01-09T12:32:57.281Z,99657.66
2023-01-09T12:35:35.119Z,99650.16
2023-01-09T12:38:21.951Z,99646.88
2023-01-09T12:41:25.255Z,99645.50
2023-01-09T12:44:10.837Z,99642.09
2023-01-09T12:46:46.998Z,99643.88
2023-01-09T12:49:29.722Z,99630.34
2023-01-09T12:52:05.400Z,99614.59
2023-01-09T12:54:42.568Z,99610.50
2023-01-09T12:57:19.729Z,99616.94
2023-01-09T12:59:55.223Z,99618.63
2023-01-09T13:02:29.027Z,99612.75
2023-01-09T13:05:01.220Z,99615.31
2023-01-09T13:07:35.745Z,99609.44
2023-01-09T13:10:09.070Z,99608.25
2023-01-09T13:12:42.504Z,99602.22
2023-01-09T13:15:27.777Z,99609.47
2023-01-09T13:18:01.393Z,99605.56
2023-01-09T13:20:35.231Z,99606.50
2023-01-09T13:23:05.469Z,99608.72
2023-01-09T13:25:41.216Z,99613.41
2023-01-09T13:28:17.276Z,99611.81
2023-01-09T13:30:58.918Z,99608.91
2023-01-09T13:33:30.400Z,99617.59
2023-01-09T13:36:02.947Z,99614.66
2023-01-09T13:38:33.055Z,99613.34
2023-01-09T13:41:33.136Z,99611.28
2023-01-09T13:44:03.310Z,99618.19
2023-01-09T13:46:43.735Z,99621.84
2023-01-09T13:49:50.221Z,99621.28
2023-01-09T13:52:34.227Z,99626.53
2023-01-09T13:55:25.160Z,99621.56
2023-01-09T13:58:19.232Z,99631.38
2023-01-09T14:00:52.880Z,99622.63
2023-01-09T14:03:26.424Z,99630.31
2023-01-09T14:06:18.410Z,99630.28
2023-01-09T14:08:49.033Z,99625.16
2023-01-09T14:11:27.600Z,99625.72
2023-01-09T14:14:04.525Z,99621.13
2023-01-09T14:16:33.302Z,99611.50
2023-01-09T14:19:18.217Z,99605.03
2023-01-09T14:21:49.728Z,99603.63
2023-01-09T14:24:30.508Z,99596.41
2023-01-09T14:27:00.639Z,99594.84
2023-01-09T14:29:47.759Z,99598.03
2023-01-09T14:32:39.075Z,99598.22
2023-01-09T14:35:16.229Z,99590.19
2023-01-09T14:37:46.381Z,99597.44
2023-01-09T14:40:22.879Z,99580.88
2023-01-09T14:42:55.120Z,99590.97
2023-01-09T14:45:26.191Z,99581.16
2023-01-09T14:47:59.401Z,99584.47
2023-01-09T14:50:34.680Z,99583.78
2023-01-09T14:53:08.187Z,99580.28
2023-01-09T14:55:44.944Z,99591.31
2023-01-09T14:58:14.175Z,99592.16
2023-01-09T15:01:03.837Z,99594.47
2023-01-09T15:03:38.117Z,99577.41
2023-01-09T15:06:13.748Z,99584.81
2023-01-09T15:08:46.778Z,99580.22
2023-01-09T15:11:15.468Z,99577.25
2023-01-09T15:13:47.812Z,99586.41
2023-01-09T15:16:20.581Z,99579.22
2023-01-09T15:18:52.941Z,99572.22
2023-01-09T15:21:25.861Z,99571.44
2023-01-09T15:23:54.435Z,99572.63
2023-01-09T15:26:26.588Z,99570.06
2023-01-09T15:29:01.890Z,99565.34
2023-01-09T15:31:30.747Z,99566.16
2023-01-09T15:33:58.962Z,99569.69
2023-01-09T15:36:31.270Z,99564.31
2023-01-09T15:39:00.745Z,99560.06
2023-01-09T15:41:49.077Z,99556.47
2023-01-09T15:44:20.094Z,99560.72
2023-01-09T15:46:50.211Z,99555.16
2023-01-09T15:49:19.270Z,99555.25
2023-01-09T15:51:50.168Z,99559.28
2023-01-09T15:54:22.107Z,99547.31
2023-01-09T15:56:50.296Z,99545.38
2023-01-09T15:59:27.108Z,99555.94
2023-01-09T16:02:15.844Z,99557.81
2023-01-09T16:04:44.146Z,99554.97
2023-01-09T16:07:17.052Z,99559.13
2023-01-09T16:09:47.681Z,99545.09
2023-01-09T16:12:21.160Z,99546.25
2023-01-09T16:14:53.718Z,99545.47
2023-01-09T16:17:26.647Z,99544.72
2023-01-09T16:19:57.981Z,99537.72
2023-01-09T16:22:29.756Z,99535.72
2023-01-09T16:25:00.974Z,99542.28
2023-01-09T16:27:30.812Z,99542.72
2023-01-09T16:30:00.619Z,99544.47
2023-01-09T16:32:30.923Z,99547.00
2023-01-09T16:35:02.700Z,99548.56
2023-01-09T16:37:33.464Z,99548.38
2023-01-09T16:40:26.543Z,99546.78
2023-01-09T16:43:03.459Z,99534.13
2023-01-09T16:45:34.513Z,99526.94
2023-01-09T16:48:03.303Z,99522.56
2023-01-09T16:50:31.376Z,99519.88
2023-01-09T16:53:04.293Z,99525.97
2023-01-09T16:55:32.827Z,99513.19
2023-01-09T16:58:00.981Z,99519.78
2023-01-09T17:00:29.201Z,99507.44
2023-01-09T17:02:58.313Z,99497.16
2023-01-09T17:05:26.418Z,99502.47
2023-01-09T17:07:55.978Z,99511.81
2023-01-09T17:10:25.894Z,99512.59
2023-01-09T17:12:54.016Z,99506.22
2023-01-09T17:15:22.128Z,99511.91
2023-01-09T17:17:50.287Z,99513.13
2023-01-09T17:20:19.402Z,99505.81
2023-01-09T17:22:47.568Z,99504.06
2023-01-09T17:25:34.425Z,99508.34
2023-01-09T17:28:22.384Z,99500.88
2023-01-09T17:30:50.548Z,99498.34
2023-01-09T17:33:19.899Z,99498.06
2023-01-09T17:35:48.203Z,99506.63
2023-01-09T17:38:16.816Z,99509.53
2023-01-09T17:40:45.957Z,99516.00
2023-01-09T17:43:16.209Z,99508.78
2023-01-09T17:45:44.884Z,99493.19
2023-01-09T17:48:17.839Z,99485.84
2023-01-09T17:50:46.529Z,99484.66
2023-01-09T17:53:14.973Z,99488.19
2023-01-09T17:55:43.551Z,99487.59
2023-01-09T17:58:26.067Z,99485.13
2023-01-09T18:00:54.656Z,99479.25
2023-01-09T18:03:23.240Z,99491.13
2023-01-09T18:05:52.304Z,99499.53
2023-01-09T18:08:20.585Z,99495.06
2023-01-09T18:10:49.116Z,99498.41
2023-01-09T18:13:18.722Z,99486.22
2023-01-09T18:15:47.358Z,99485.75
2023-01-09T18:18:16.327Z,99482.09
2023-01-09T18:20:45.666Z,99482.28
2023-01-09T18:23:13.899Z,99473.38
2023-01-09T18:25:43.158Z,99467.25
2023-01-09T18:28:15.049Z,99458.47
2023-01-09T18:30:45.649Z,99444.91
2023-01-09T18:33:14.461Z,99440.94
2023-01-09T18:35:43.007Z,99435.72
2023-01-09T18:38:11.415Z,99420.97
2023-01-09T18:40:41.857Z,99430.06
2023-01-09T18:43:11.602Z,99431.03
2023-01-09T18:45:40.208Z,99416.75
2023-01-09T18:48:12.802Z,99412.91
2023-01-09T18:50:40.949Z,99413.63
2023-01-09T18:53:09.102Z,99415.41
2023-01-09T18:55:38.087Z,99404.25
2023-01-09T18:58:06.728Z,99396.00
2023-01-09T19:00:35.080Z,99395.00
2023-01-09T19:03:03.092Z,99405.72
2023-01-09T19:05:34.722Z,99402.75
2023-01-09T19:08:02.770Z,99403.28
2023-01-09T19:10:30.895Z,99398.13
2023-01-09T19:12:58.985Z,99400.25
2023-01-09T19:15:29.775Z,99397.72
2023-01-09T19:17:58.472Z,99401.16
2023-01-09T19:20:26.595Z,99405.19
2023-01-09T19:22:59.636Z,99395.88
2023-01-09T19:25:27.925Z,99391.06
2023-01-09T19:27:56.260Z,99397.34
2023-01-09T19:30:24.387Z,99392.13
2023-01-09T19:32:53.609Z,99397.75
2023-01-09T19:35:21.754Z,99395.41
2023-01-09T19:37:49.908Z,99392.41
2023-01-09T19:40:19.788Z,99388.81
2023-01-09T19:42:47.945Z,99386.44
2023-01-09T19:45:16.080Z,99388.72
2023-01-09T19:47:44.146Z,99392.94
2023-01-09T19:50:13.522Z,99381.06
2023-01-09T19:52:43.796Z,99388.72
2023-01-09T19:55:13.707Z,99384.00
2023-01-09T19:57:44.285Z,99391.09
2023-01-09T20:00:13.989Z,99394.41
2023-01-09T20:02:43.261Z,99396.97
2023-01-09T20:05:11.908Z,99381.63
2023-01-09T20:07:40.342Z,99382.13
2023-01-09T20:10:09.492Z,99383.06
2023-01-09T20:12:37.684Z,99363.19
2023-01-09T20:15:12.853Z,99351.47
2023-01-09T20:17:41.407Z,99350.44
2023-01-09T20:20:10.965Z,99355.69
2023-01-09T20:22:39.127Z,99360.47
2023-01-09T20:25:10.522Z,99344.97
2023-01-09T20:27:38.753Z,99357.47
2023-01-09T20:30:10.118Z,99357.28
2023-01-09T20:32:38.476Z,99364.31
2023-01-09T20:35:07.326Z,99364.13
2023-01-09T20:37:35.431Z,99349.13
2023-01-09T20:40:03.553Z,99357.59
2023-01-09T20:42:32.630Z,99348.16
2023-01-09T20:45:00.882Z,99335.72
2023-01-09T20:47:31.094Z,99334.50
2023-01-09T20:49:59.410Z,99340.06
2023-01-09T20:52:27.513Z,99336.00
2023-01-09T20:54:55.697Z,99322.53
2023-01-09T20:57:23.883Z,99323.91
2023-01-09T20:59:52.143Z,99323.75
2023-01-09T21:02:25.168Z,99337.25
2023-01-09T21:04:54.651Z,99342.16
2023-01-09T21:07:25.690Z,99332.59
2023-01-09T21:09:53.848Z,99328.91
2023-01-09T21:12:34.715Z,99323.69
2023-01-09T21:15:05.241Z,99323.50
2023-01-09T21:17:37.551Z,99324.47
2023-01-09T21:20:09.875Z,99332.63
2023-01-09T21:22:38.618Z,99334.69
2023-01-09T21:25:08.084Z,99329.97
2023-01-09T21:27:40.203Z,99329.50
2023-01-09T21:30:10.308Z,99335.47
2023-01-09T21:32:38.648Z,99339.09
2023-01-09T21:35:08.907Z,99321.75
2023-01-09T21:37:38.864Z,99326.63
2023-01-09T21:40:13.006Z,99325.03
2023-01-09T21:42:58.708Z,99312.44
2023-01-09T21:45:40.705Z,99323.03
2023-01-09T21:48:10.483Z,99313.28
2023-01-09T21:50:41.223Z,99309.09
2023-01-09T21:53:12.960Z,99297.88
2023-01-09T21:55:41.113Z,99289.28
2023-01-09T21:58:09.161Z,99290.81
2023-01-09T22:00:37.276Z,99285.00
2023-01-09T22:03:09.278Z,99277.63
2023-01-09T22:05:39.286Z,99277.41
2023-01-09T22:08:07.681Z,99272.44
2023-01-09T22:10:35.738Z,99255.88
2023-01-09T22:13:17.821Z,99269.50
2023-01-09T22:15:47.524Z,99263.81
2023-01-09T22:18:15.614Z,99273.13
2023-01-09T22:20:46.160Z,99262.38
2023-01-09T22:23:32.601Z,99257.09
2023-01-09T22:26:01.115Z,99253.75
2023-01-09T22:28:29.208Z,99236.50
2023-01-09T22:30:57.291Z,99253.19
2023-01-09T22:33:25.413Z,99242.97
2023-01-09T22:35:55.630Z,99234.06
2023-01-09T22:38:23.799Z,99227.56
2023-01-09T22:40:51.963Z,99219.22
2023-01-09T22:43:20.047Z,99226.94
2023-01-09T22:45:48.279Z,99225.78
2023-01-09T22:48:16.445Z,99223.50
2023-01-09T22:50:44.567Z,99218.63
2023-01-09T22:53:14.193Z,99220.53
2023-01-09T22:55:42.319Z,99223.91
2023-01-09T22:58:10.600Z,99211.59
2023-01-09T23:00:38.685Z,99210.47
2023-01-09T23:03:06.727Z,99221.16
2023-01-09T23:05:34.893Z,99203.53
2023-01-09T23:08:03.055Z,99202.44
2023-01-09T23:10:32.695Z,99208.81
2023-01-09T23:13:00.883Z,99197.13
2023-01-09T23:15:29.050Z,99202.19
2023-01-09T23:17:57.106Z,99189.22
2023-01-09T23:20:25.337Z,99181.16
2023-01-09T23:22:53.496Z,99183.84
2023-01-09T23:25:21.553Z,99183.88
2023-01-09T23:27:51.006Z,99175.97
2023-01-09T23:30:19.284Z,99171.72
2023-01-09T23:32:48.524Z,99159.59
2023-01-09T23:35:17.489Z,99163.88
2023-01-09T23:37:45.728Z,99167.50
2023-01-09T23:40:14.317Z,99154.09
2023-01-09T23:42:59.589Z,99166.06
2023-01-09T23:45:29.189Z,99166.72
2023-01-09T23:47:57.221Z,99171.91
2023-01-09T23:50:25.282Z,99153.16
2023-01-09T23:52:53.389Z,99162.41
2023-01-09T23:55:21.587Z,99155.19
2023-01-09T23:57:54.408Z,99164.16
